Altamont, Illinois
Current Conditions -  °F | °C
As of 10:15 PM on Monday 22 Dec 2014 (Local Time) from K1H2 Reporting Station
Light Rain Light Rain  
Wind Chill: 50°   Ceiling: 700
Heat Index: 50°   Visibility: 5mi
Dew Point: 47°   Wind: 12mph
Humidity: 89%   Direction: 140°SE
Pressure: 29.6"   Gusts: 21mph
Location:  39.06°N, 88.75°W
Report Text: K1H2 230415Z AUTO 14010G18KT 5SM -RA OVC007 10/08 A2960 RMK AO2 T01000083
Loading
Personal Weather Stations






























Interactive Weather Map New forecast layout! Learn more

10-Day Weather Forecast

Advertisements
Track Severe Weather on mobile